Terminal Aerodrome Forecast
Issued by NWS Wilmington, NC

Current Version | Previous Version | Graphics & Text | Print | Product List | Glossary Off
Versions: 1 2 3 4 5 6 7 8 9 10 11 12 13 14 15 16

000
FTUS42 KILM 272352 CCA
TAFMYR
TAF COR
KMYR 272352Z 2800/2824 21010KT P6SM BKN250
     FM280200 24005KT P6SM SCT120 BKN200
     FM281300 26010KT P6SM SCT045 BKN250
     FM281900 23013G19KT P6SM SCT050 BKN250
      AMD LTD TO CLD VIS AND WIND 2803/2810=

USA.gov is the U.S. government's official web portal to all federal, state and local government web resources and services.